Time;durP1;ratioP1;P1;durP2;ratioP2;P2;SDS_P1;SDS_P2;PMS_P1;PMS_P2;Temp;Humidity;BMP_temperature;BMP_pressure;BME280_temperature;BME280_humidity;BME280_pressure;Samples;Min_cycle;Max_cycle;Signal;HPM_P1;HPM_P2
2023/12/29 00:00:56;;;;;;;5.30;3.00;;;10.70;59.70;;;6.49;85.20;95768.25;4985804;28;20034;-52
2023/12/29 00:03:22;;;;;;;5.35;3.50;;;10.80;59.60;;;6.57;84.20;95767.84;4977719;28;20408;-53
2023/12/29 00:05:47;;;;;;;5.35;3.40;;;10.90;59.50;;;6.68;83.33;95758.28;4989018;28;20026;-52
2023/12/29 00:08:13;;;;;;;4.03;3.10;;;11.00;59.40;;;6.77;83.23;95756.88;4984835;28;20033;-54
2023/12/29 00:10:39;;;;;;;4.90;3.25;;;11.10;59.30;;;6.80;82.70;95753.75;4990262;28;20053;-55
2023/12/29 00:13:05;;;;;;;4.50;3.20;;;11.10;59.10;;;6.85;81.72;95753.84;4983348;28;20017;-51
2023/12/29 00:15:31;;;;;;;4.97;3.05;;;11.20;59.00;;;6.91;81.20;95755.53;4985317;28;20036;-55
2023/12/29 00:17:56;;;;;;;3.25;2.53;;;11.30;58.80;;;6.95;81.15;95759.31;4982150;28;20036;-55
2023/12/29 00:20:22;;;;;;;5.30;3.38;;;11.40;58.70;;;7.00;79.91;95748.03;4984611;28;20039;-56
2023/12/29 00:22:48;;;;;;;6.80;3.50;;;11.40;58.50;;;7.01;80.75;95744.31;4983908;28;20395;-53
2023/12/29 00:25:14;;;;;;;5.07;3.30;;;11.50;58.40;;;7.05;80.27;95744.66;4984925;28;20029;-53
2023/12/29 00:27:40;;;;;;;4.15;3.00;;;11.50;58.20;;;7.05;79.77;95744.66;4982687;28;20037;-55
2023/12/29 00:30:08;;;;;;;4.97;2.97;;;11.50;58.10;;;7.06;79.82;95738.34;4977979;28;20029;-56
2023/12/29 00:32:35;;;;;;;5.20;3.03;;;11.60;58.10;;;7.06;79.10;95733.03;4980810;28;20065;-57
2023/12/29 00:35:01;;;;;;;3.45;2.90;;;11.60;58.00;;;7.07;78.92;95730.13;4989339;28;20060;-51
2023/12/29 00:37:27;;;;;;;3.83;2.88;;;11.60;57.80;;;7.11;78.39;95738.41;4984104;28;20061;-52
2023/12/29 00:39:52;;;;;;;4.75;3.10;;;11.60;57.80;;;7.10;78.50;95737.59;4986444;28;20024;-52
2023/12/29 00:42:18;;;;;;;10.15;4.32;;;11.60;57.70;;;7.09;78.46;95738.66;4973660;28;20026;-52
2023/12/29 00:44:44;;;;;;;7.32;3.67;;;11.60;57.60;;;7.07;79.05;95737.28;4988266;28;20361;-54
2023/12/29 00:47:10;;;;;;;6.53;3.47;;;11.60;57.60;;;7.05;79.35;95737.53;4985162;28;20108;-54
2023/12/29 00:49:40;;;;;;;3.85;3.10;;;11.70;57.50;;;6.95;80.63;95732.84;4980701;28;20022;-57
2023/12/29 00:52:07;;;;;;;4.43;3.17;;;11.70;57.50;;;6.86;81.56;95736.94;4985102;28;20546;-55
2023/12/29 00:54:33;;;;;;;3.60;2.83;;;11.60;57.40;;;6.87;78.96;95740.38;4985651;28;20056;-57
2023/12/29 00:56:58;;;;;;;3.75;3.05;;;11.60;57.40;;;6.88;79.88;95747.28;4983187;28;20068;-56
2023/12/29 00:59:24;;;;;;;4.15;2.92;;;11.60;57.30;;;6.89;80.27;95751.53;4986118;28;20044;-55
2023/12/29 01:01:50;;;;;;;4.38;3.33;;;11.60;57.40;;;6.89;80.21;95751.53;4979205;28;20058;-56
2023/12/29 01:04:16;;;;;;;4.95;3.20;;;11.60;57.40;;;6.84;80.50;95744.28;4998880;28;20040;-57
2023/12/29 01:06:42;;;;;;;4.88;3.33;;;11.60;57.40;;;6.83;80.58;95736.56;4978836;28;20404;-57
2023/12/29 01:09:09;;;;;;;4.00;3.17;;;11.60;57.40;;;6.78;81.61;95729.34;4985791;28;20084;-54
2023/12/29 01:11:35;;;;;;;5.15;3.25;;;11.60;57.30;;;6.72;82.47;95730.31;4981094;28;20030;-55
2023/12/29 01:14:01;;;;;;;4.03;2.70;;;11.60;57.30;;;6.68;81.88;95732.63;4982218;28;20381;-56
2023/12/29 01:16:27;;;;;;;5.00;3.33;;;11.60;57.30;;;6.62;82.51;95730.13;4974435;28;20030;-58
2023/12/29 01:18:52;;;;;;;3.83;2.85;;;11.50;57.30;;;6.57;82.65;95724.72;4982683;28;20256;-53
2023/12/29 01:21:18;;;;;;;4.25;3.13;;;11.50;57.30;;;6.59;82.86;95734.03;4983071;28;20473;-53
2023/12/29 01:23:44;;;;;;;3.95;2.88;;;11.50;57.30;;;6.56;83.11;95728.41;4983967;28;20018;-55
2023/12/29 01:26:10;;;;;;;4.80;3.55;;;11.40;57.30;;;6.49;84.96;95733.84;4984126;28;20025;-56
2023/12/29 01:28:36;;;;;;;5.50;3.50;;;11.40;57.40;;;6.46;84.54;95729.00;4985236;28;20051;-51
2023/12/29 01:31:02;;;;;;;7.28;3.25;;;11.40;57.40;;;6.27;84.07;95723.09;4981136;28;20084;-53
2023/12/29 01:33:27;;;;;;;4.75;3.10;;;11.30;57.40;;;6.34;85.64;95733.53;4980924;28;20022;-51
2023/12/29 01:35:53;;;;;;;4.40;3.30;;;11.30;57.40;;;6.30;84.66;95732.38;4979068;28;20026;-52
2023/12/29 01:38:19;;;;;;;4.03;2.92;;;11.20;57.40;;;6.30;84.53;95743.78;4980333;28;20457;-58
2023/12/29 01:40:46;;;;;;;4.97;3.00;;;11.20;57.50;;;6.31;83.15;95729.50;4983551;28;20400;-52
2023/12/29 01:43:12;;;;;;;4.15;3.20;;;11.20;57.60;;;6.28;85.21;95727.31;4984011;28;20032;-52
2023/12/29 01:45:38;;;;;;;4.15;3.05;;;11.10;57.60;;;6.26;83.87;95732.84;4982355;28;20503;-54
2023/12/29 01:48:06;;;;;;;4.03;3.08;;;11.20;57.60;;;6.26;83.63;95722.25;4988522;28;20030;-53
2023/12/29 01:50:34;;;;;;;8.15;3.65;;;11.10;57.60;;;6.26;83.26;95721.44;4979304;28;20084;-55
2023/12/29 01:53:03;;;;;;;4.90;3.10;;;11.20;57.60;;;6.24;82.62;95721.69;4992359;28;20450;-53
2023/12/29 01:55:31;;;;;;;4.18;3.22;;;11.10;57.50;;;6.28;83.50;95727.31;4985826;28;20486;-53
2023/12/29 01:57:58;;;;;;;6.32;3.40;;;11.10;57.50;;;6.30;83.68;95724.44;4987538;28;20072;-54
2023/12/29 02:00:25;;;;;;;5.72;3.83;;;11.10;57.50;;;6.32;84.04;95727.66;4988977;28;20087;-56
2023/12/29 02:02:52;;;;;;;4.60;3.50;;;11.10;57.60;;;6.31;84.30;95734.78;4978839;28;20397;-53
2023/12/29 02:05:22;;;;;;;7.22;3.50;;;11.10;57.70;;;6.30;84.28;95733.19;4987940;28;20587;-54
2023/12/29 02:07:53;;;;;;;5.68;3.08;;;11.10;57.70;;;6.27;85.42;95725.72;4984118;28;20381;-55
2023/12/29 02:10:20;;;;;;;5.32;3.22;;;11.10;57.70;;;6.26;85.93;95730.19;4987116;28;20275;-51
2023/12/29 02:12:49;;;;;;;6.57;4.13;;;11.10;57.80;;;6.23;86.48;95720.06;4988265;28;20022;-52
2023/12/29 02:15:15;;;;;;;5.40;3.60;;;11.10;57.80;;;6.17;87.58;95718.38;4979123;28;20029;-52
2023/12/29 02:17:52;;;;;;;8.45;3.85;;;11.10;57.80;;;6.17;86.92;95706.97;4984722;28;20084;-52
2023/12/29 02:20:20;;;;;;;5.80;3.42;;;11.10;57.80;;;6.12;87.34;95701.59;4986907;28;20369;-52
2023/12/29 02:22:46;;;;;;;5.50;3.67;;;11.00;57.80;;;6.08;87.49;95695.16;4982955;28;20026;-52
2023/12/29 02:25:12;;;;;;;4.97;3.33;;;11.00;57.90;;;6.05;87.35;95699.09;4981039;28;20033;-54
2023/12/29 02:28:15;;;;;;;4.82;3.28;;;10.90;57.80;;;6.03;86.98;95694.03;4983228;28;20042;-52
2023/12/29 02:31:14;;;;;;;6.00;3.53;;;10.90;57.90;;;6.03;87.29;95701.94;4980106;28;20576;-53
2023/12/29 02:33:45;;;;;;;3.58;2.90;;;10.90;58.00;;;6.03;87.38;95695.88;4986712;28;20029;-53
2023/12/29 02:36:16;;;;;;;6.00;3.50;;;10.80;58.10;;;6.08;87.39;95713.66;4979844;28;20034;-52
2023/12/29 02:38:42;;;;;;;6.47;3.50;;;10.80;58.20;;;6.05;88.04;95714.13;4984549;28;20148;-52
2023/12/29 02:41:10;;;;;;;4.85;3.28;;;10.80;58.20;;;6.02;88.25;95708.28;4983023;28;20182;-54
2023/12/29 02:43:36;;;;;;;6.80;3.80;;;10.80;58.20;;;6.01;88.54;95701.38;4983950;28;20037;-53
2023/12/29 02:46:02;;;;;;;3.97;3.25;;;10.80;58.30;;;6.04;88.53;95697.47;4982281;28;20022;-54
2023/12/29 02:48:28;;;;;;;5.45;3.25;;;10.80;58.30;;;6.07;88.85;95707.56;4989302;28;20397;-52
2023/12/29 02:50:54;;;;;;;6.10;3.60;;;10.90;58.40;;;6.12;89.11;95707.69;4988216;28;20028;-52
2023/12/29 02:53:20;;;;;;;4.50;3.22;;;10.90;58.40;;;6.18;88.98;95713.91;4989552;28;20033;-55
2023/12/29 02:55:46;;;;;;;8.20;3.40;;;10.90;58.50;;;6.25;88.63;95706.63;4986168;28;20022;-54
2023/12/29 02:58:12;;;;;;;4.38;3.25;;;10.90;58.50;;;6.32;88.32;95699.34;4979444;28;20030;-54
2023/12/29 03:00:38;;;;;;;6.32;3.65;;;11.00;58.60;;;6.37;87.85;95711.91;4985133;28;20266;-53
2023/12/29 03:03:04;;;;;;;4.95;3.28;;;11.10;58.60;;;6.43;87.46;95700.38;4977036;28;20049;-53
2023/12/29 03:05:30;;;;;;;4.28;3.05;;;11.10;58.50;;;6.46;87.69;95703.34;4986491;28;20034;-55
2023/12/29 03:07:55;;;;;;;4.80;3.50;;;11.10;58.50;;;6.47;87.45;95704.16;5005533;28;20128;-53
2023/12/29 03:10:21;;;;;;;6.13;3.88;;;11.10;58.50;;;6.49;87.11;95702.09;4983731;28;20069;-57
2023/12/29 03:12:47;;;;;;;5.72;3.30;;;11.20;58.50;;;6.50;87.32;95711.63;4986022;28;20033;-57
2023/12/29 03:15:13;;;;;;;6.03;3.22;;;11.20;58.40;;;6.53;88.15;95708.50;4987600;28;20021;-56
2023/12/29 03:17:39;;;;;;;4.82;3.22;;;11.20;58.40;;;6.56;90.27;95715.97;4985454;28;20157;-52
2023/12/29 03:20:07;;;;;;;4.82;3.53;;;11.20;58.50;;;6.57;90.63;95709.63;4986033;28;20029;-55
2023/12/29 03:22:33;;;;;;;7.70;3.80;;;11.20;58.60;;;6.58;91.66;95713.91;4987795;28;20113;-52
2023/12/29 03:24:59;;;;;;;5.47;3.60;;;11.20;59.30;;;6.58;92.18;95716.56;4978761;28;20025;-55
2023/12/29 03:27:25;;;;;;;8.75;3.75;;;11.20;58.80;;;6.59;93.58;95720.78;4983600;28;20025;-57
2023/12/29 03:29:51;;;;;;;5.85;4.30;;;11.20;58.90;;;6.56;94.12;95713.31;4996844;28;20076;-57
2023/12/29 03:32:17;;;;;;;5.40;3.97;;;11.10;59.00;;;6.57;94.87;95712.28;4987921;28;20025;-53
2023/12/29 03:34:43;;;;;;;4.10;3.67;;;11.10;59.20;;;6.54;94.76;95704.00;4984343;28;20032;-54
2023/12/29 03:37:09;;;;;;;7.50;3.95;;;11.10;59.20;;;6.54;94.69;95701.34;4987010;28;20029;-52
2023/12/29 03:39:35;;;;;;;5.93;4.28;;;11.10;59.30;;;6.55;95.34;95698.50;4980797;28;20419;-55
2023/12/29 03:42:02;;;;;;;5.22;3.60;;;11.10;59.40;;;6.54;94.44;95691.56;4978432;28;20029;-55
2023/12/29 03:44:28;;;;;;;5.38;3.85;;;11.10;59.50;;;6.55;94.59;95697.66;4990556;28;20049;-56
2023/12/29 03:46:54;;;;;;;6.70;3.72;;;11.10;59.50;;;6.54;94.50;95704.00;4985026;28;20128;-58
2023/12/29 03:49:20;;;;;;;5.50;3.60;;;11.10;59.60;;;6.55;95.14;95702.97;4986514;28;20052;-53
2023/12/29 03:51:46;;;;;;;5.60;3.80;;;11.10;59.60;;;6.53;94.82;95700.56;4985739;28;20021;-53
2023/12/29 03:54:12;;;;;;;6.13;3.92;;;11.10;59.70;;;6.51;95.24;95699.97;4988796;28;20029;-55
2023/12/29 03:56:38;;;;;;;4.68;3.63;;;11.10;59.70;;;6.51;95.17;95702.63;4983633;28;20024;-58
2023/12/29 03:59:04;;;;;;;7.50;3.92;;;11.10;59.70;;;6.51;93.83;95691.25;4985034;28;20017;-52
2023/12/29 04:01:33;;;;;;;6.25;3.53;;;11.10;59.80;;;6.55;93.46;95695.84;4985795;28;20030;-56
2023/12/29 04:03:59;;;;;;;6.47;3.40;;;11.10;60.40;;;6.56;93.81;95700.09;5022352;23;20118;-56
2023/12/29 04:06:25;;;;;;;6.60;3.22;;;11.10;59.80;;;6.59;95.00;95694.31;5008417;28;20108;-59
2023/12/29 04:08:51;;;;;;;4.60;3.60;;;11.10;59.80;;;6.59;93.44;95690.88;5001875;28;20032;-61
2023/12/29 04:11:17;;;;;;;6.93;3.63;;;11.10;59.80;;;6.63;93.13;95681.41;5006366;28;20021;-56
2023/12/29 04:13:43;;;;;;;5.97;3.63;;;11.20;59.90;;;6.65;94.17;95674.84;4991822;28;20495;-55
2023/12/29 04:16:09;;;;;;;7.13;3.75;;;11.20;59.90;;;6.65;95.13;95680.16;4978943;28;20026;-51
2023/12/29 04:18:34;;;;;;;4.65;3.33;;;11.20;60.00;;;6.62;94.47;95675.31;4975049;28;20033;-51
2023/12/29 04:21:00;;;;;;;6.40;4.35;;;11.20;59.90;;;6.56;94.42;95665.69;4983968;28;20025;-50
2023/12/29 04:23:26;;;;;;;7.05;4.00;;;11.20;59.90;;;6.48;94.96;95676.63;4983310;28;20370;-52
2023/12/29 04:25:52;;;;;;;7.22;4.00;;;11.20;59.90;;;6.44;95.62;95667.56;4995579;28;20384;-55
2023/12/29 04:28:18;;;;;;;4.28;3.53;;;11.20;59.90;;;6.41;96.48;95687.38;4977278;28;20038;-53
2023/12/29 04:30:44;;;;;;;4.65;3.30;;;11.20;59.90;;;6.39;96.59;95678.03;4975908;28;20037;-55
2023/12/29 04:33:10;;;;;;;5.57;3.90;;;11.20;60.00;;;6.46;96.69;95687.47;4985651;28;20496;-55
2023/12/29 04:35:36;;;;;;;6.57;3.53;;;11.20;60.10;;;6.47;95.80;95694.38;4977475;28;20075;-56
2023/12/29 04:38:01;;;;;;;4.85;3.63;;;11.20;60.20;;;6.51;95.72;95688.59;4979121;28;20026;-52
2023/12/29 04:40:28;;;;;;;4.28;3.35;;;11.20;60.20;;;6.53;96.43;95692.63;4989061;28;20025;-56
2023/12/29 04:42:55;;;;;;;4.97;3.53;;;11.20;60.30;;;6.56;95.38;95702.75;4976695;28;20049;-52
2023/12/29 04:45:21;;;;;;;6.68;3.35;;;11.20;60.40;;;6.49;95.65;95692.28;4989323;28;20029;-52
2023/12/29 04:47:46;;;;;;;6.88;2.80;;;11.10;60.30;;;6.56;95.40;95696.66;4981043;28;20030;-55
2023/12/29 04:50:12;;;;;;;4.78;3.50;;;11.20;60.40;;;6.54;96.09;95694.22;4987836;28;20047;-55
2023/12/29 04:52:38;;;;;;;5.20;3.45;;;11.20;60.50;;;6.53;96.24;95695.28;4981673;28;20026;-51
2023/12/29 04:55:04;;;;;;;5.82;3.60;;;11.20;60.50;;;6.58;96.78;95695.38;4974833;28;20021;-49
2023/12/29 04:57:30;;;;;;;5.20;3.75;;;11.10;61.30;;;6.59;96.98;95696.97;4970785;28;20028;-53
2023/12/29 04:59:56;;;;;;;5.75;3.80;;;11.10;60.60;;;6.54;98.22;95704.00;4970762;28;20109;-50
2023/12/29 05:02:22;;;;;;;5.10;3.30;;;11.10;60.80;;;6.51;98.23;95701.84;4984951;28;20040;-50
2023/12/29 05:04:48;;;;;;;6.15;3.85;;;11.10;60.90;;;6.50;98.66;95708.97;4980415;28;20038;-53
2023/12/29 05:07:14;;;;;;;4.85;3.28;;;11.10;61.00;;;6.49;100.00;95705.53;4968672;28;20119;-50
2023/12/29 05:09:39;;;;;;;6.18;3.40;;;11.10;61.00;;;6.41;100.00;95707.72;4970614;28;20026;-53
2023/12/29 05:12:06;;;;;;;4.93;3.30;;;11.10;61.10;;;6.39;100.00;95699.22;4970883;28;20122;-54
2023/12/29 05:14:32;;;;;;;3.63;2.80;;;11.00;61.20;;;6.32;100.00;95704.66;4982603;28;20030;-53
2023/12/29 05:16:58;;;;;;;4.03;3.30;;;11.00;61.30;;;6.31;100.00;95691.66;4970686;28;20038;-53
2023/12/29 05:19:24;;;;;;;5.50;3.80;;;10.90;61.30;;;6.31;100.00;95699.59;4977060;28;20464;-54
2023/12/29 05:21:51;;;;;;;6.53;3.88;;;10.90;62.30;;;6.31;100.00;95697.75;4970034;28;20741;-50
2023/12/29 05:24:17;;;;;;;4.95;3.63;;;10.90;61.70;;;6.29;100.00;95696.38;4971031;28;20049;-55
2023/12/29 05:26:43;;;;;;;5.45;3.70;;;10.90;61.90;;;6.22;100.00;95699.97;4991763;28;20021;-53
2023/12/29 05:29:09;;;;;;;6.13;3.53;;;10.80;62.00;;;6.20;100.00;95698.56;4993888;28;20488;-50
2023/12/29 05:31:35;;;;;;;6.63;3.83;;;10.80;62.10;;;6.11;100.00;95703.44;4993074;28;20447;-50
2023/12/29 05:34:01;;;;;;;4.47;3.60;;;10.80;62.30;;;6.08;100.00;95703.91;4973813;28;20026;-50
2023/12/29 05:36:26;;;;;;;5.05;3.90;;;10.80;62.40;;;6.03;100.00;95698.50;4974101;28;20116;-51
2023/12/29 05:38:52;;;;;;;5.13;4.07;;;10.70;62.50;;;6.00;100.00;95702.41;4980101;28;20045;-53
2023/12/29 05:41:19;;;;;;;7.57;4.50;;;10.80;62.70;;;5.97;100.00;95705.53;4974394;28;20030;-50
2023/12/29 05:43:45;;;;;;;5.03;3.90;;;10.70;62.80;;;5.93;100.00;95699.09;4985313;28;20026;-50
2023/12/29 05:46:12;;;;;;;7.32;4.20;;;10.70;62.90;;;5.91;100.00;95703.78;4981218;28;20119;-48
2023/12/29 05:48:39;;;;;;;6.63;3.70;;;10.70;63.00;;;5.87;100.00;95697.34;4974077;28;20037;-51
2023/12/29 05:51:14;;;;;;;8.30;4.93;;;10.70;63.20;;;5.83;100.00;95704.16;4981432;28;20061;-47
2023/12/29 05:53:41;;;;;;;9.25;4.43;;;10.70;63.40;;;5.75;100.00;95694.72;4979143;28;20596;-49
2023/12/29 05:56:07;;;;;;;6.65;5.25;;;10.60;63.30;;;5.75;100.00;95696.56;4973881;28;20032;-51
2023/12/29 05:58:33;;;;;;;7.05;4.63;;;10.60;63.40;;;5.72;100.00;95692.53;4973927;28;20026;-50
2023/12/29 06:01:00;;;;;;;11.88;7.47;;;10.60;63.50;;;5.69;100.00;95697.47;4976726;28;20025;-48
2023/12/29 06:03:26;;;;;;;10.32;5.65;;;10.50;63.60;;;5.61;100.00;95698.63;4973630;28;20042;-49
2023/12/29 06:05:53;;;;;;;7.35;5.35;;;10.50;63.80;;;5.60;100.00;95689.09;4989693;28;20107;-49
2023/12/29 06:08:19;;;;;;;8.98;5.45;;;10.50;63.90;;;5.63;100.00;95687.81;4982878;28;20041;-47
2023/12/29 06:10:44;;;;;;;7.53;5.70;;;10.50;64.00;;;5.60;100.00;95688.28;4973840;28;20484;-48
2023/12/29 06:13:10;;;;;;;7.10;5.25;;;10.50;64.20;;;5.58;100.00;95696.47;4977891;28;20609;-48
2023/12/29 06:15:36;;;;;;;9.00;4.97;;;10.40;64.30;;;5.62;100.00;95705.53;4993089;28;20053;-48
2023/12/29 06:18:03;;;;;;;8.20;5.53;;;10.40;64.50;;;5.66;100.00;95701.38;4992647;28;20099;-50
2023/12/29 06:20:29;;;;;;;8.05;4.90;;;10.50;64.70;;;5.68;100.00;95695.88;4991972;28;20021;-51
2023/12/29 06:22:56;;;;;;;7.45;5.20;;;10.40;64.80;;;5.69;100.00;95710.69;4992234;28;20429;-50
2023/12/29 06:25:22;;;;;;;7.75;5.60;;;10.50;65.00;;;5.70;100.00;95713.13;4985061;28;20034;-48
2023/12/29 06:27:48;;;;;;;6.88;5.13;;;10.50;65.10;;;5.77;100.00;95713.00;4973450;28;20521;-49
2023/12/29 06:30:15;;;;;;;7.75;4.88;;;10.50;65.30;;;5.81;100.00;95708.84;4973399;28;20038;-48
2023/12/29 06:32:41;;;;;;;7.50;5.10;;;10.50;65.40;;;5.86;100.00;95698.41;4989063;28;20034;-50
2023/12/29 06:35:09;;;;;;;7.55;4.72;;;10.60;65.50;;;5.90;100.00;95709.31;4992515;28;20416;-50
2023/12/29 06:37:38;;;;;;;5.85;4.80;;;10.60;65.60;;;5.91;100.00;95697.69;4990890;28;20396;-51
2023/12/29 06:40:07;;;;;;;11.48;7.18;;;10.60;65.60;;;5.90;100.00;95704.81;4973510;28;20061;-49
2023/12/29 06:42:33;;;;;;;7.18;4.88;;;10.70;65.60;;;5.89;100.00;95703.22;4973116;28;20620;-54
2023/12/29 06:44:59;;;;;;;10.65;5.07;;;10.60;65.50;;;5.82;100.00;95707.81;4992128;28;20029;-50
2023/12/29 06:47:25;;;;;;;11.15;5.18;;;10.60;65.50;;;5.83;100.00;95704.16;4992268;28;20037;-53
2023/12/29 06:49:51;;;;;;;6.20;5.32;;;10.60;65.40;;;5.79;100.00;95710.91;4991014;28;20491;-50
2023/12/29 06:52:17;;;;;;;11.02;5.57;;;10.70;65.60;;;5.79;100.00;95709.06;4987663;28;20116;-50
2023/12/29 06:54:43;;;;;;;14.05;6.13;;;10.60;65.60;;;5.77;100.00;95705.88;4974955;28;20026;-51
2023/12/29 06:57:09;;;;;;;9.95;5.05;;;10.60;65.70;;;5.74;100.00;95716.09;4972849;28;20034;-49
2023/12/29 06:59:35;;;;;;;9.52;5.32;;;10.60;65.80;;;5.75;100.00;95700.00;4972669;28;20068;-50
2023/12/29 07:02:01;;;;;;;9.32;5.90;;;10.60;65.90;;;5.73;100.00;95712.63;4983948;28;20038;-53
2023/12/29 07:04:27;;;;;;;10.10;5.10;;;10.60;65.90;;;5.74;100.00;95711.63;4991468;28;20103;-49
2023/12/29 07:06:53;;;;;;;9.27;5.32;;;10.60;66.00;;;5.78;100.00;95718.03;4991306;28;20034;-54
2023/12/29 07:09:19;;;;;;;7.10;5.10;;;10.60;66.10;;;5.84;100.00;95721.59;4992121;28;20053;-50
2023/12/29 07:11:49;;;;;;;8.52;5.15;;;10.60;66.30;;;5.86;100.00;95718.72;4986230;28;20060;-51
2023/12/29 07:14:17;;;;;;;6.95;4.30;;;10.60;67.30;;;5.83;100.00;95714.72;4990226;28;20049;-53
2023/12/29 07:16:44;;;;;;;6.50;5.00;;;10.60;66.40;;;5.81;100.00;95719.44;4991990;28;20038;-55
2023/12/29 07:19:10;;;;;;;6.93;4.65;;;10.60;66.30;;;5.80;100.00;95723.13;4990327;28;20033;-55
2023/12/29 07:21:36;;;;;;;7.68;4.88;;;10.60;66.30;;;5.70;100.00;95722.88;4991601;28;20079;-55
2023/12/29 07:24:02;;;;;;;7.05;4.85;;;10.60;66.40;;;5.75;100.00;95723.00;4973286;28;20030;-55
2023/12/29 07:26:28;;;;;;;6.80;4.72;;;10.60;66.40;;;5.79;100.00;95721.47;4985614;28;20056;-53
2023/12/29 07:28:54;;;;;;;7.25;4.75;;;10.60;66.40;;;5.79;100.00;95713.56;4980151;28;20477;-53
2023/12/29 07:31:23;;;;;;;15.05;5.20;;;10.60;66.50;;;5.82;100.00;95715.75;4981926;28;20061;-48
2023/12/29 07:33:51;;;;;;;7.75;5.18;;;10.60;66.70;;;5.81;100.00;95711.50;4982962;28;20025;-53
2023/12/29 07:36:17;;;;;;;5.50;4.90;;;10.60;66.60;;;5.80;100.00;95718.63;4980872;28;20022;-55
2023/12/29 07:38:42;;;;;;;5.97;4.70;;;10.60;66.60;;;5.78;100.00;95718.03;4981948;28;20025;-54
2023/12/29 07:41:09;;;;;;;7.68;4.63;;;10.60;66.70;;;5.78;100.00;95714.59;4981035;28;20037;-54
2023/12/29 07:43:35;;;;;;;6.72;4.50;;;10.60;66.70;;;5.84;100.00;95728.75;4986239;28;20037;-57
2023/12/29 07:46:03;;;;;;;6.78;4.88;;;10.60;66.80;;;5.88;100.00;95727.22;4977231;28;20392;-55
2023/12/29 07:48:28;;;;;;;7.63;4.90;;;10.70;67.00;;;5.90;100.00;95733.09;4971584;28;20423;-57
2023/12/29 07:51:06;;;;;;;8.50;4.65;;;10.70;67.10;;;6.00;100.00;95728.06;4989230;28;20025;-56
2023/12/29 07:53:32;;;;;;;6.13;4.20;;;10.70;67.40;;;6.12;100.00;95730.69;4978526;28;20200;-55
2023/12/29 07:55:58;;;;;;;7.03;4.20;;;10.80;67.40;;;6.19;100.00;95734.00;4974499;28;20109;-53
2023/12/29 07:58:23;;;;;;;8.80;4.32;;;10.80;67.40;;;6.28;100.00;95737.91;4971598;28;20026;-53
2023/12/29 08:00:49;;;;;;;7.93;4.32;;;10.90;67.50;;;6.35;100.00;95740.41;4972626;28;20436;-57
2023/12/29 08:03:15;;;;;;;10.70;4.43;;;11.00;67.50;;;6.39;100.00;95733.63;4984226;28;20072;-56
2023/12/29 08:05:41;;;;;;;6.32;4.50;;;11.00;67.40;;;6.47;100.00;95738.56;4986099;28;20819;-54
2023/12/29 08:08:07;;;;;;;7.20;4.55;;;11.10;67.40;;;6.52;100.00;95743.13;4982114;28;20079;-54
2023/12/29 08:10:32;;;;;;;5.38;3.80;;;11.10;67.50;;;6.58;100.00;95740.38;4971694;28;20069;-53
2023/12/29 08:12:58;;;;;;;6.30;4.03;;;11.10;67.60;;;6.67;100.00;95741.56;4973736;28;20427;-52
2023/12/29 08:15:24;;;;;;;5.47;4.00;;;11.20;67.60;;;6.77;100.00;95754.22;4990909;28;20025;-49
2023/12/29 08:17:50;;;;;;;5.75;4.25;;;11.30;67.60;;;6.85;100.00;95753.03;4991068;28;20025;-49
2023/12/29 08:20:16;;;;;;;5.88;3.92;;;11.30;67.60;;;6.91;100.00;95752.91;4989948;28;20022;-50
2023/12/29 08:22:43;;;;;;;8.43;4.28;;;11.40;67.50;;;6.98;100.00;95744.00;4990040;28;20049;-50
2023/12/29 08:25:08;;;;;;;4.43;3.60;;;11.50;67.60;;;6.99;100.00;95749.06;4989170;28;20029;-55
2023/12/29 08:27:35;;;;;;;4.63;3.90;;;11.50;67.50;;;7.06;100.00;95759.53;4990712;28;20038;-50
2023/12/29 08:30:01;;;;;;;5.03;4.00;;;11.60;67.50;;;7.12;100.00;95758.56;4990647;28;20030;-54
2023/12/29 08:32:27;;;;;;;5.43;3.63;;;11.60;67.40;;;7.15;100.00;95753.59;4988931;28;20096;-53
2023/12/29 08:34:53;;;;;;;5.20;4.13;;;11.70;67.40;;;7.18;100.00;95754.97;4990425;28;20018;-50
2023/12/29 08:37:19;;;;;;;6.78;4.10;;;11.70;67.40;;;7.21;100.00;95748.38;4989568;28;20377;-50
2023/12/29 08:39:50;;;;;;;6.60;3.60;;;11.70;67.30;;;7.26;100.00;95751.91;4989848;28;20034;-57
2023/12/29 08:42:16;;;;;;;5.32;3.90;;;11.80;67.40;;;7.30;100.00;95761.00;4989701;28;20120;-53
2023/12/29 08:44:42;;;;;;;5.90;3.60;;;11.80;67.30;;;7.37;100.00;95753.72;4989158;28;20446;-54
2023/12/29 08:47:08;;;;;;;6.95;3.78;;;11.80;67.30;;;7.38;100.00;95749.19;4990382;28;20110;-52
2023/12/29 08:49:38;;;;;;;4.10;2.97;;;11.90;67.20;;;7.41;100.00;95751.38;4989270;28;20076;-49
2023/12/29 08:52:05;;;;;;;4.63;3.50;;;12.00;67.30;;;7.45;100.00;95752.50;4972839;28;20037;-55
2023/12/29 08:54:30;;;;;;;4.45;3.70;;;12.00;67.20;;;7.51;100.00;95753.38;4974007;28;20022;-55
2023/12/29 08:56:56;;;;;;;4.25;3.35;;;12.00;67.10;;;7.51;100.00;95764.00;4970630;28;20481;-53
2023/12/29 08:59:23;;;;;;;5.57;3.10;;;12.10;67.10;;;7.54;100.00;95759.00;4968961;28;20026;-50
2023/12/29 09:01:49;;;;;;;3.97;3.00;;;12.10;67.00;;;7.58;100.00;95765.44;4979730;28;20037;-50
2023/12/29 09:04:15;;;;;;;5.88;3.30;;;12.10;67.00;;;7.61;100.00;95764.94;4995827;28;20435;-51
2023/12/29 09:06:40;;;;;;;5.93;3.30;;;12.10;67.00;;;7.63;100.00;95762.06;4988860;28;20036;-48
2023/12/29 09:09:06;;;;;;;3.33;2.90;;;12.20;66.90;;;7.64;100.00;95766.31;4989867;28;20385;-51
2023/12/29 09:11:32;;;;;;;5.57;3.30;;;12.20;67.60;;;7.64;100.00;95767.13;4984763;28;20038;-49
2023/12/29 09:13:58;;;;;;;6.28;2.88;;;12.20;66.80;;;7.65;100.00;95760.78;4980828;28;20022;-54
2023/12/29 09:16:24;;;;;;;4.72;2.80;;;12.30;66.80;;;7.69;100.00;95755.00;4970976;28;20038;-48
2023/12/29 09:18:49;;;;;;;3.67;3.00;;;12.30;66.80;;;7.71;100.00;95761.66;4971762;28;20029;-50
2023/12/29 09:21:15;;;;;;;4.53;3.20;;;12.30;66.70;;;7.74;100.00;95760.38;4971196;28;20030;-49
2023/12/29 09:23:41;;;;;;;4.68;3.00;;;12.30;66.60;;;7.72;100.00;95736.75;4969992;28;20033;-51
2023/12/29 09:26:07;;;;;;;5.88;2.90;;;12.40;66.60;;;7.80;100.00;95738.19;4971737;28;20525;-49
2023/12/29 09:28:34;;;;;;;4.43;2.95;;;12.40;66.50;;;7.86;100.00;95745.97;4970672;28;20453;-51
2023/12/29 09:31:00;;;;;;;5.78;3.42;;;12.40;66.40;;;7.88;100.00;95740.44;4987689;28;20025;-50
2023/12/29 09:33:27;;;;;;;4.50;2.90;;;12.50;66.50;;;7.88;100.00;95741.22;4986371;28;20042;-53
2023/12/29 09:35:53;;;;;;;4.68;3.00;;;12.50;66.40;;;7.86;100.00;95743.31;4988314;28;20026;-51
2023/12/29 09:38:19;;;;;;;4.32;3.40;;;12.50;66.40;;;7.93;100.00;95747.66;4979722;28;20446;-54
2023/12/29 09:40:49;;;;;;;6.43;3.75;;;12.50;66.30;;;7.92;100.00;95751.34;4977427;28;20038;-50
2023/12/29 09:43:15;;;;;;;4.22;3.53;;;12.50;66.30;;;7.87;100.00;95754.75;4982092;28;20052;-53
2023/12/29 09:45:49;;;;;;;3.53;2.80;;;12.60;66.20;;;7.89;100.00;95757.94;4971879;28;20037;-52
2023/12/29 09:48:19;;;;;;;4.20;2.60;;;12.60;66.10;;;7.94;100.00;95749.28;4976600;28;20032;-54
2023/12/29 09:50:50;;;;;;;3.72;3.03;;;12.60;66.10;;;7.98;100.00;95761.00;4986042;28;20457;-54
2023/12/29 09:53:19;;;;;;;4.05;3.00;;;12.60;66.10;;;8.01;100.00;95753.34;4979502;28;20030;-51
2023/12/29 09:55:48;;;;;;;3.40;2.75;;;12.70;66.10;;;8.05;100.00;95753.66;4980973;28;20079;-53
2023/12/29 09:58:17;;;;;;;4.15;3.20;;;12.70;66.10;;;8.08;100.00;95758.47;4975892;28;20025;-53
2023/12/29 10:00:49;;;;;;;5.07;3.42;;;12.80;66.00;;;8.09;100.00;95760.91;4978911;28;20485;-51
2023/12/29 10:03:15;;;;;;;8.25;3.35;;;12.80;65.80;;;8.05;100.00;95766.94;4974280;28;20626;-51
2023/12/29 10:05:41;;;;;;;4.05;3.30;;;12.90;65.80;;;8.04;100.00;95757.38;4974617;28;20046;-51
2023/12/29 10:08:10;;;;;;;8.43;3.30;;;12.90;65.70;;;7.96;100.00;95755.94;4975918;28;20027;-54
2023/12/29 10:10:42;;;;;;;5.65;3.10;;;12.90;65.60;;;7.99;100.00;95751.97;4984892;28;20022;-53
2023/12/29 10:13:12;;;;;;;3.95;3.40;;;13.00;65.50;;;8.10;100.00;95756.41;4981524;28;20029;-50
2023/12/29 10:15:55;;;;;;;3.88;2.90;;;13.10;65.50;;;8.18;100.00;95749.84;4991707;28;20030;-49
2023/12/29 10:19:06;;;;;;;4.22;3.00;;;13.10;65.40;;;8.27;100.00;95743.91;4985252;28;20029;-57
2023/12/29 10:22:06;;;;;;;3.42;2.67;;;13.20;65.30;;;8.31;100.00;95742.34;4980115;28;20100;-51